sensor_id;sensor_type;location;lat;lon;timestamp;P1;durP1;ratioP1;P2;durP2;ratioP2
48550;SDS011;34397;51.176;6.738;2022-08-03T00:00:39;6.28;;;2.50;;
48550;SDS011;34397;51.176;6.738;2022-08-03T00:03:12;5.30;;;2.42;;
48550;SDS011;34397;51.176;6.738;2022-08-03T00:05:44;4.68;;;2.22;;
48550;SDS011;34397;51.176;6.738;2022-08-03T00:08:16;5.07;;;2.40;;
48550;SDS011;34397;51.176;6.738;2022-08-03T00:10:48;4.80;;;2.47;;
48550;SDS011;34397;51.176;6.738;2022-08-03T00:13:20;5.10;;;2.43;;
48550;SDS011;34397;51.176;6.738;2022-08-03T00:15:52;5.80;;;2.83;;
48550;SDS011;34397;51.176;6.738;2022-08-03T00:18:25;6.90;;;2.72;;
48550;SDS011;34397;51.176;6.738;2022-08-03T00:20:57;4.18;;;2.30;;
48550;SDS011;34397;51.176;6.738;2022-08-03T00:23:29;4.80;;;2.50;;
48550;SDS011;34397;51.176;6.738;2022-08-03T00:26:01;5.57;;;2.50;;
48550;SDS011;34397;51.176;6.738;2022-08-03T00:28:33;6.85;;;2.33;;
48550;SDS011;34397;51.176;6.738;2022-08-03T00:31:05;5.38;;;2.30;;
48550;SDS011;34397;51.176;6.738;2022-08-03T00:33:39;4.65;;;2.60;;
48550;SDS011;34397;51.176;6.738;2022-08-03T00:36:11;4.63;;;2.22;;
48550;SDS011;34397;51.176;6.738;2022-08-03T00:38:42;4.90;;;2.10;;
48550;SDS011;34397;51.176;6.738;2022-08-03T00:41:14;6.05;;;2.38;;
48550;SDS011;34397;51.176;6.738;2022-08-03T00:43:46;4.25;;;2.25;;
48550;SDS011;34397;51.176;6.738;2022-08-03T00:46:18;4.47;;;2.22;;
48550;SDS011;34397;51.176;6.738;2022-08-03T00:48:52;4.97;;;2.40;;
48550;SDS011;34397;51.176;6.738;2022-08-03T00:51:24;5.30;;;2.38;;
48550;SDS011;34397;51.176;6.738;2022-08-03T00:53:57;6.95;;;2.75;;
48550;SDS011;34397;51.176;6.738;2022-08-03T00:56:29;7.40;;;2.40;;
48550;SDS011;34397;51.176;6.738;2022-08-03T00:59:00;4.95;;;2.75;;
48550;SDS011;34397;51.176;6.738;2022-08-03T01:01:34;5.07;;;2.42;;
48550;SDS011;34397;51.176;6.738;2022-08-03T01:04:07;6.57;;;2.40;;
48550;SDS011;34397;51.176;6.738;2022-08-03T01:06:41;4.45;;;2.30;;
48550;SDS011;34397;51.176;6.738;2022-08-03T01:09:34;5.38;;;2.40;;
48550;SDS011;34397;51.176;6.738;2022-08-03T01:12:13;5.03;;;2.40;;
48550;SDS011;34397;51.176;6.738;2022-08-03T01:14:59;4.60;;;2.38;;
48550;SDS011;34397;51.176;6.738;2022-08-03T01:17:42;4.55;;;2.35;;
48550;SDS011;34397;51.176;6.738;2022-08-03T01:20:21;6.40;;;2.53;;
48550;SDS011;34397;51.176;6.738;2022-08-03T01:26:16;4.50;;;2.45;;
48550;SDS011;34397;51.176;6.738;2022-08-03T01:29:13;4.90;;;2.70;;
48550;SDS011;34397;51.176;6.738;2022-08-03T01:32:11;5.25;;;2.60;;
48550;SDS011;34397;51.176;6.738;2022-08-03T01:34:49;4.43;;;2.28;;
48550;SDS011;34397;51.176;6.738;2022-08-03T01:37:27;5.30;;;2.05;;
48550;SDS011;34397;51.176;6.738;2022-08-03T01:40:07;4.93;;;2.20;;
48550;SDS011;34397;51.176;6.738;2022-08-03T01:42:42;4.97;;;2.65;;
48550;SDS011;34397;51.176;6.738;2022-08-03T01:45:17;5.53;;;2.45;;
48550;SDS011;34397;51.176;6.738;2022-08-03T01:47:51;6.22;;;3.08;;
48550;SDS011;34397;51.176;6.738;2022-08-03T01:50:26;4.70;;;2.50;;
48550;SDS011;34397;51.176;6.738;2022-08-03T01:52:59;4.25;;;2.20;;
48550;SDS011;34397;51.176;6.738;2022-08-03T01:55:32;5.85;;;2.40;;
48550;SDS011;34397;51.176;6.738;2022-08-03T01:58:07;4.80;;;2.70;;
48550;SDS011;34397;51.176;6.738;2022-08-03T02:00:41;6.05;;;2.55;;
48550;SDS011;34397;51.176;6.738;2022-08-03T02:03:14;5.13;;;2.70;;
48550;SDS011;34397;51.176;6.738;2022-08-03T02:05:47;4.80;;;2.30;;
48550;SDS011;34397;51.176;6.738;2022-08-03T02:08:20;6.15;;;2.50;;
48550;SDS011;34397;51.176;6.738;2022-08-03T02:10:56;7.32;;;2.70;;
48550;SDS011;34397;51.176;6.738;2022-08-03T02:16:02;6.72;;;2.63;;
48550;SDS011;34397;51.176;6.738;2022-08-03T02:18:35;6.28;;;2.65;;
48550;SDS011;34397;51.176;6.738;2022-08-03T02:21:10;4.93;;;2.90;;
48550;SDS011;34397;51.176;6.738;2022-08-03T02:23:43;5.53;;;2.78;;
48550;SDS011;34397;51.176;6.738;2022-08-03T02:26:16;10.23;;;3.15;;
48550;SDS011;34397;51.176;6.738;2022-08-03T02:28:52;5.28;;;2.92;;
48550;SDS011;34397;51.176;6.738;2022-08-03T02:31:29;6.15;;;2.85;;
48550;SDS011;34397;51.176;6.738;2022-08-03T02:34:05;6.15;;;2.70;;
48550;SDS011;34397;51.176;6.738;2022-08-03T02:36:43;6.13;;;2.90;;
48550;SDS011;34397;51.176;6.738;2022-08-03T02:39:20;5.65;;;3.10;;
48550;SDS011;34397;51.176;6.738;2022-08-03T02:41:56;6.60;;;3.08;;
48550;SDS011;34397;51.176;6.738;2022-08-03T02:44:32;5.13;;;3.10;;
48550;SDS011;34397;51.176;6.738;2022-08-03T02:47:07;6.95;;;3.10;;
48550;SDS011;34397;51.176;6.738;2022-08-03T02:49:41;6.35;;;3.22;;
48550;SDS011;34397;51.176;6.738;2022-08-03T02:52:15;7.97;;;3.00;;
48550;SDS011;34397;51.176;6.738;2022-08-03T02:54:49;5.18;;;2.80;;
48550;SDS011;34397;51.176;6.738;2022-08-03T02:57:27;6.13;;;2.70;;
48550;SDS011;34397;51.176;6.738;2022-08-03T03:00:02;5.90;;;2.85;;
48550;SDS011;34397;51.176;6.738;2022-08-03T03:02:37;6.85;;;2.88;;
48550;SDS011;34397;51.176;6.738;2022-08-03T03:05:11;4.57;;;2.85;;
48550;SDS011;34397;51.176;6.738;2022-08-03T03:07:44;8.02;;;3.28;;
48550;SDS011;34397;51.176;6.738;2022-08-03T03:10:17;6.18;;;3.45;;
48550;SDS011;34397;51.176;6.738;2022-08-03T03:12:51;6.95;;;3.13;;
48550;SDS011;34397;51.176;6.738;2022-08-03T03:15:26;6.18;;;3.50;;
48550;SDS011;34397;51.176;6.738;2022-08-03T03:18:01;6.30;;;3.33;;
48550;SDS011;34397;51.176;6.738;2022-08-03T03:20:34;5.93;;;2.92;;
48550;SDS011;34397;51.176;6.738;2022-08-03T03:23:07;6.60;;;3.30;;
48550;SDS011;34397;51.176;6.738;2022-08-03T03:25:40;5.70;;;3.05;;
48550;SDS011;34397;51.176;6.738;2022-08-03T03:28:12;5.45;;;3.30;;
48550;SDS011;34397;51.176;6.738;2022-08-03T03:30:44;5.60;;;3.00;;
48550;SDS011;34397;51.176;6.738;2022-08-03T03:33:18;6.30;;;3.70;;
48550;SDS011;34397;51.176;6.738;2022-08-03T03:35:50;7.30;;;3.72;;
48550;SDS011;34397;51.176;6.738;2022-08-03T03:38:22;6.88;;;3.35;;
48550;SDS011;34397;51.176;6.738;2022-08-03T03:40:54;6.28;;;3.38;;
48550;SDS011;34397;51.176;6.738;2022-08-03T03:43:27;6.30;;;3.60;;
48550;SDS011;34397;51.176;6.738;2022-08-03T03:45:59;8.98;;;3.85;;
48550;SDS011;34397;51.176;6.738;2022-08-03T03:48:33;6.28;;;3.97;;
48550;SDS011;34397;51.176;6.738;2022-08-03T03:51:05;7.00;;;3.50;;
48550;SDS011;34397;51.176;6.738;2022-08-03T03:53:37;7.10;;;3.50;;
48550;SDS011;34397;51.176;6.738;2022-08-03T03:56:09;7.57;;;3.85;;
48550;SDS011;34397;51.176;6.738;2022-08-03T03:58:41;7.90;;;3.57;;
48550;SDS011;34397;51.176;6.738;2022-08-03T04:01:13;6.82;;;4.28;;
48550;SDS011;34397;51.176;6.738;2022-08-03T04:03:47;6.43;;;4.13;;
48550;SDS011;34397;51.176;6.738;2022-08-03T04:06:19;6.05;;;3.58;;
48550;SDS011;34397;51.176;6.738;2022-08-03T04:09:08;7.18;;;3.85;;
48550;SDS011;34397;51.176;6.738;2022-08-03T04:11:56;6.03;;;3.70;;
48550;SDS011;34397;51.176;6.738;2022-08-03T04:14:31;6.20;;;3.75;;
48550;SDS011;34397;51.176;6.738;2022-08-03T04:17:06;11.30;;;4.13;;
48550;SDS011;34397;51.176;6.738;2022-08-03T04:19:41;6.43;;;3.60;;
48550;SDS011;34397;51.176;6.738;2022-08-03T04:22:18;5.68;;;3.50;;
48550;SDS011;34397;51.176;6.738;2022-08-03T04:24:55;6.63;;;3.58;;
48550;SDS011;34397;51.176;6.738;2022-08-03T04:27:33;9.52;;;3.88;;
48550;SDS011;34397;51.176;6.738;2022-08-03T04:30:08;7.70;;;3.58;;
48550;SDS011;34397;51.176;6.738;2022-08-03T04:32:42;8.07;;;3.63;;
48550;SDS011;34397;51.176;6.738;2022-08-03T04:35:21;5.93;;;3.80;;
48550;SDS011;34397;51.176;6.738;2022-08-03T04:37:54;10.57;;;3.90;;
48550;SDS011;34397;51.176;6.738;2022-08-03T04:40:32;6.18;;;3.75;;
48550;SDS011;34397;51.176;6.738;2022-08-03T04:43:05;5.80;;;3.30;;
48550;SDS011;34397;51.176;6.738;2022-08-03T04:45:39;7.88;;;3.90;;
48550;SDS011;34397;51.176;6.738;2022-08-03T04:48:12;7.07;;;3.53;;
48550;SDS011;34397;51.176;6.738;2022-08-03T04:50:46;5.75;;;3.53;;
48550;SDS011;34397;51.176;6.738;2022-08-03T04:53:18;8.90;;;3.90;;
48550;SDS011;34397;51.176;6.738;2022-08-03T04:55:51;7.28;;;3.40;;
48550;SDS011;34397;51.176;6.738;2022-08-03T04:58:23;5.85;;;4.03;;
48550;SDS011;34397;51.176;6.738;2022-08-03T05:00:55;8.00;;;4.07;;
48550;SDS011;34397;51.176;6.738;2022-08-03T05:03:27;6.32;;;3.85;;
48550;SDS011;34397;51.176;6.738;2022-08-03T05:06:02;6.65;;;4.03;;
48550;SDS011;34397;51.176;6.738;2022-08-03T05:08:34;7.22;;;3.85;;
48550;SDS011;34397;51.176;6.738;2022-08-03T05:11:06;6.32;;;3.83;;
48550;SDS011;34397;51.176;6.738;2022-08-03T05:13:38;8.23;;;4.00;;
48550;SDS011;34397;51.176;6.738;2022-08-03T05:16:09;7.93;;;3.70;;
48550;SDS011;34397;51.176;6.738;2022-08-03T05:18:42;6.57;;;3.67;;
48550;SDS011;34397;51.176;6.738;2022-08-03T05:21:16;6.38;;;3.97;;
48550;SDS011;34397;51.176;6.738;2022-08-03T05:23:48;7.13;;;4.13;;
48550;SDS011;34397;51.176;6.738;2022-08-03T05:26:20;8.18;;;4.20;;
48550;SDS011;34397;51.176;6.738;2022-08-03T05:28:51;6.72;;;4.10;;
48550;SDS011;34397;51.176;6.738;2022-08-03T05:31:23;8.93;;;3.70;;
48550;SDS011;34397;51.176;6.738;2022-08-03T05:33:55;5.82;;;3.80;;
48550;SDS011;34397;51.176;6.738;2022-08-03T05:36:28;6.45;;;3.70;;
48550;SDS011;34397;51.176;6.738;2022-08-03T05:39:00;7.38;;;4.25;;
48550;SDS011;34397;51.176;6.738;2022-08-03T05:41:32;6.20;;;3.25;;
48550;SDS011;34397;51.176;6.738;2022-08-03T05:44:04;6.18;;;3.78;;
48550;SDS011;34397;51.176;6.738;2022-08-03T05:46:36;6.63;;;3.73;;
48550;SDS011;34397;51.176;6.738;2022-08-03T05:49:08;6.35;;;4.07;;
48550;SDS011;34397;51.176;6.738;2022-08-03T05:51:41;6.10;;;3.63;;
48550;SDS011;34397;51.176;6.738;2022-08-03T05:54:13;7.63;;;3.95;;
48550;SDS011;34397;51.176;6.738;2022-08-03T05:56:45;7.68;;;4.38;;
48550;SDS011;34397;51.176;6.738;2022-08-03T05:59:17;6.75;;;3.45;;
48550;SDS011;34397;51.176;6.738;2022-08-03T06:01:48;7.03;;;3.95;;
48550;SDS011;34397;51.176;6.738;2022-08-03T06:04:20;6.95;;;4.07;;
48550;SDS011;34397;51.176;6.738;2022-08-03T06:06:53;6.53;;;3.60;;
48550;SDS011;34397;51.176;6.738;2022-08-03T06:09:25;5.78;;;3.67;;
48550;SDS011;34397;51.176;6.738;2022-08-03T06:14:30;7.90;;;3.90;;
48550;SDS011;34397;51.176;6.738;2022-08-03T06:17:02;8.13;;;4.57;;
48550;SDS011;34397;51.176;6.738;2022-08-03T06:19:34;6.55;;;4.03;;
48550;SDS011;34397;51.176;6.738;2022-08-03T06:22:07;6.55;;;3.63;;
48550;SDS011;34397;51.176;6.738;2022-08-03T06:24:39;7.18;;;3.72;;
48550;SDS011;34397;51.176;6.738;2022-08-03T06:27:11;6.82;;;3.83;;
48550;SDS011;34397;51.176;6.738;2022-08-03T06:29:43;6.60;;;3.40;;
48550;SDS011;34397;51.176;6.738;2022-08-03T06:32:15;6.38;;;3.65;;
48550;SDS011;34397;51.176;6.738;2022-08-03T06:34:47;7.63;;;3.80;;
48550;SDS011;34397;51.176;6.738;2022-08-03T06:37:20;7.85;;;3.78;;
48550;SDS011;34397;51.176;6.738;2022-08-03T06:39:53;6.80;;;3.53;;
48550;SDS011;34397;51.176;6.738;2022-08-03T06:42:25;7.53;;;3.60;;
48550;SDS011;34397;51.176;6.738;2022-08-03T06:44:57;7.72;;;3.55;;
48550;SDS011;34397;51.176;6.738;2022-08-03T06:47:29;6.18;;;3.30;;
48550;SDS011;34397;51.176;6.738;2022-08-03T06:50:00;5.78;;;3.40;;
48550;SDS011;34397;51.176;6.738;2022-08-03T06:52:34;5.70;;;3.63;;
48550;SDS011;34397;51.176;6.738;2022-08-03T06:55:06;7.78;;;3.30;;
48550;SDS011;34397;51.176;6.738;2022-08-03T06:57:38;5.75;;;3.05;;
48550;SDS011;34397;51.176;6.738;2022-08-03T07:00:10;5.65;;;3.35;;
48550;SDS011;34397;51.176;6.738;2022-08-03T07:02:44;5.22;;;3.15;;
48550;SDS011;34397;51.176;6.738;2022-08-03T07:05:16;5.72;;;3.20;;
48550;SDS011;34397;51.176;6.738;2022-08-03T07:07:49;8.20;;;3.65;;
48550;SDS011;34397;51.176;6.738;2022-08-03T07:10:24;4.85;;;2.80;;
48550;SDS011;34397;51.176;6.738;2022-08-03T07:12:57;8.07;;;3.05;;
48550;SDS011;34397;51.176;6.738;2022-08-03T07:15:29;9.40;;;3.55;;
48550;SDS011;34397;51.176;6.738;2022-08-03T07:18:01;8.30;;;3.63;;
48550;SDS011;34397;51.176;6.738;2022-08-03T07:20:33;5.18;;;2.80;;
48550;SDS011;34397;51.176;6.738;2022-08-03T07:23:06;8.27;;;3.22;;
48550;SDS011;34397;51.176;6.738;2022-08-03T07:25:38;8.15;;;3.08;;
48550;SDS011;34397;51.176;6.738;2022-08-03T07:28:10;5.20;;;2.90;;
48550;SDS011;34397;51.176;6.738;2022-08-03T07:30:42;6.93;;;3.25;;
48550;SDS011;34397;51.176;6.738;2022-08-03T07:33:14;7.00;;;2.83;;
48550;SDS011;34397;51.176;6.738;2022-08-03T07:35:46;5.20;;;2.77;;
48550;SDS011;34397;51.176;6.738;2022-08-03T07:38:19;4.47;;;2.60;;
48550;SDS011;34397;51.176;6.738;2022-08-03T07:40:52;5.10;;;2.42;;
48550;SDS011;34397;51.176;6.738;2022-08-03T07:45:55;4.40;;;2.38;;
48550;SDS011;34397;51.176;6.738;2022-08-03T07:48:27;7.53;;;2.83;;
48550;SDS011;34397;51.176;6.738;2022-08-03T07:50:59;5.30;;;2.83;;
48550;SDS011;34397;51.176;6.738;2022-08-03T07:53:33;5.57;;;2.65;;
48550;SDS011;34397;51.176;6.738;2022-08-03T07:56:05;5.97;;;2.60;;
48550;SDS011;34397;51.176;6.738;2022-08-03T07:58:37;6.30;;;2.42;;
48550;SDS011;34397;51.176;6.738;2022-08-03T08:01:09;5.47;;;2.80;;
48550;SDS011;34397;51.176;6.738;2022-08-03T08:03:41;6.70;;;2.60;;
48550;SDS011;34397;51.176;6.738;2022-08-03T08:06:13;6.35;;;2.60;;
48550;SDS011;34397;51.176;6.738;2022-08-03T08:08:46;7.85;;;2.67;;
48550;SDS011;34397;51.176;6.738;2022-08-03T08:11:18;5.50;;;2.47;;
48550;SDS011;34397;51.176;6.738;2022-08-03T08:13:51;5.68;;;2.78;;
48550;SDS011;34397;51.176;6.738;2022-08-03T08:16:23;7.10;;;2.70;;
48550;SDS011;34397;51.176;6.738;2022-08-03T08:18:55;6.65;;;2.60;;
48550;SDS011;34397;51.176;6.738;2022-08-03T08:21:26;7.18;;;2.92;;
48550;SDS011;34397;51.176;6.738;2022-08-03T08:24:00;5.55;;;2.35;;
48550;SDS011;34397;51.176;6.738;2022-08-03T08:26:31;5.65;;;2.90;;
48550;SDS011;34397;51.176;6.738;2022-08-03T08:29:03;5.32;;;2.50;;
48550;SDS011;34397;51.176;6.738;2022-08-03T08:31:35;4.32;;;2.53;;
48550;SDS011;34397;51.176;6.738;2022-08-03T08:34:07;5.53;;;2.42;;
48550;SDS011;34397;51.176;6.738;2022-08-03T08:36:39;6.85;;;2.50;;
48550;SDS011;34397;51.176;6.738;2022-08-03T08:39:12;6.83;;;2.43;;
48550;SDS011;34397;51.176;6.738;2022-08-03T08:41:44;6.60;;;2.80;;
48550;SDS011;34397;51.176;6.738;2022-08-03T08:44:16;6.77;;;2.87;;
48550;SDS011;34397;51.176;6.738;2022-08-03T08:46:49;5.03;;;2.50;;
48550;SDS011;34397;51.176;6.738;2022-08-03T08:49:23;7.43;;;2.20;;
48550;SDS011;34397;51.176;6.738;2022-08-03T08:51:58;6.68;;;2.72;;
48550;SDS011;34397;51.176;6.738;2022-08-03T08:54:32;4.55;;;2.22;;
48550;SDS011;34397;51.176;6.738;2022-08-03T08:57:06;5.78;;;2.38;;
48550;SDS011;34397;51.176;6.738;2022-08-03T08:59:42;5.53;;;2.10;;
48550;SDS011;34397;51.176;6.738;2022-08-03T09:02:16;5.22;;;2.22;;
48550;SDS011;34397;51.176;6.738;2022-08-03T09:04:48;5.07;;;2.38;;
48550;SDS011;34397;51.176;6.738;2022-08-03T09:07:21;8.38;;;2.53;;
48550;SDS011;34397;51.176;6.738;2022-08-03T09:09:54;4.65;;;2.17;;
48550;SDS011;34397;51.176;6.738;2022-08-03T09:12:26;6.30;;;2.38;;
48550;SDS011;34397;51.176;6.738;2022-08-03T09:15:02;8.25;;;2.33;;
48550;SDS011;34397;51.176;6.738;2022-08-03T09:17:52;7.53;;;2.22;;
48550;SDS011;34397;51.176;6.738;2022-08-03T09:20:28;6.18;;;2.03;;
48550;SDS011;34397;51.176;6.738;2022-08-03T09:23:03;5.70;;;2.35;;
48550;SDS011;34397;51.176;6.738;2022-08-03T09:25:39;7.90;;;2.08;;
48550;SDS011;34397;51.176;6.738;2022-08-03T09:28:13;7.45;;;2.10;;
48550;SDS011;34397;51.176;6.738;2022-08-03T09:30:56;5.80;;;1.80;;
48550;SDS011;34397;51.176;6.738;2022-08-03T09:33:29;5.28;;;1.77;;
48550;SDS011;34397;51.176;6.738;2022-08-03T09:36:01;4.87;;;1.83;;
48550;SDS011;34397;51.176;6.738;2022-08-03T09:38:33;5.32;;;2.08;;
48550;SDS011;34397;51.176;6.738;2022-08-03T09:41:06;6.80;;;1.80;;
48550;SDS011;34397;51.176;6.738;2022-08-03T09:43:48;3.67;;;1.30;;
48550;SDS011;34397;51.176;6.738;2022-08-03T09:46:25;5.60;;;1.48;;
48550;SDS011;34397;51.176;6.738;2022-08-03T09:49:10;4.53;;;1.48;;
48550;SDS011;34397;51.176;6.738;2022-08-03T09:51:42;3.63;;;1.50;;
48550;SDS011;34397;51.176;6.738;2022-08-03T09:54:24;4.45;;;1.35;;
48550;SDS011;34397;51.176;6.738;2022-08-03T09:56:59;4.47;;;1.40;;
48550;SDS011;34397;51.176;6.738;2022-08-03T09:59:32;3.80;;;1.33;;
48550;SDS011;34397;51.176;6.738;2022-08-03T10:02:05;5.05;;;1.90;;
48550;SDS011;34397;51.176;6.738;2022-08-03T10:04:53;11.05;;;2.20;;
48550;SDS011;34397;51.176;6.738;2022-08-03T10:07:25;7.18;;;1.30;;
48550;SDS011;34397;51.176;6.738;2022-08-03T10:09:57;5.32;;;1.60;;
48550;SDS011;34397;51.176;6.738;2022-08-03T10:12:33;5.88;;;1.48;;
48550;SDS011;34397;51.176;6.738;2022-08-03T10:15:05;6.43;;;1.58;;
48550;SDS011;34397;51.176;6.738;2022-08-03T10:17:39;5.07;;;1.50;;
48550;SDS011;34397;51.176;6.738;2022-08-03T10:20:11;3.85;;;1.55;;
48550;SDS011;34397;51.176;6.738;2022-08-03T10:22:43;5.32;;;1.63;;
48550;SDS011;34397;51.176;6.738;2022-08-03T10:27:48;6.80;;;1.50;;
48550;SDS011;34397;51.176;6.738;2022-08-03T10:30:23;14.18;;;2.28;;
48550;SDS011;34397;51.176;6.738;2022-08-03T10:33:00;4.45;;;1.35;;
48550;SDS011;34397;51.176;6.738;2022-08-03T10:35:35;5.22;;;1.65;;
48550;SDS011;34397;51.176;6.738;2022-08-03T10:38:11;6.25;;;1.60;;
48550;SDS011;34397;51.176;6.738;2022-08-03T10:40:48;4.82;;;1.42;;
48550;SDS011;34397;51.176;6.738;2022-08-03T10:43:26;3.83;;;1.45;;
48550;SDS011;34397;51.176;6.738;2022-08-03T10:46:04;4.28;;;1.38;;
48550;SDS011;34397;51.176;6.738;2022-08-03T10:48:38;5.38;;;1.50;;
48550;SDS011;34397;51.176;6.738;2022-08-03T10:51:12;5.22;;;1.35;;
48550;SDS011;34397;51.176;6.738;2022-08-03T10:53:44;3.50;;;1.30;;
48550;SDS011;34397;51.176;6.738;2022-08-03T11:05:38;1.58;;;0.98;;
48550;SDS011;34397;51.176;6.738;2022-08-03T11:08:18;4.28;;;1.10;;
48550;SDS011;34397;51.176;6.738;2022-08-03T11:10:59;3.67;;;1.20;;
48550;SDS011;34397;51.176;6.738;2022-08-03T11:13:58;2.63;;;1.30;;
48550;SDS011;34397;51.176;6.738;2022-08-03T11:16:35;3.15;;;1.33;;
48550;SDS011;34397;51.176;6.738;2022-08-03T11:19:10;3.35;;;1.05;;
48550;SDS011;34397;51.176;6.738;2022-08-03T11:21:55;3.90;;;1.20;;
48550;SDS011;34397;51.176;6.738;2022-08-03T11:27:30;3.55;;;1.25;;
48550;SDS011;34397;51.176;6.738;2022-08-03T11:30:04;4.15;;;1.50;;
48550;SDS011;34397;51.176;6.738;2022-08-03T11:32:53;3.15;;;1.40;;
48550;SDS011;34397;51.176;6.738;2022-08-03T11:35:28;2.15;;;1.20;;
48550;SDS011;34397;51.176;6.738;2022-08-03T11:38:06;3.90;;;1.10;;
48550;SDS011;34397;51.176;6.738;2022-08-03T11:40:41;3.38;;;1.02;;
48550;SDS011;34397;51.176;6.738;2022-08-03T11:46:15;2.90;;;1.30;;
48550;SDS011;34397;51.176;6.738;2022-08-03T11:48:49;3.00;;;1.10;;
48550;SDS011;34397;51.176;6.738;2022-08-03T11:51:22;2.40;;;1.13;;
48550;SDS011;34397;51.176;6.738;2022-08-03T11:53:56;3.42;;;1.10;;
48550;SDS011;34397;51.176;6.738;2022-08-03T11:56:42;2.60;;;1.10;;
48550;SDS011;34397;51.176;6.738;2022-08-03T11:59:16;2.33;;;0.90;;
48550;SDS011;34397;51.176;6.738;2022-08-03T12:01:48;3.50;;;1.30;;
48550;SDS011;34397;51.176;6.738;2022-08-03T12:04:21;3.22;;;1.15;;
48550;SDS011;34397;51.176;6.738;2022-08-03T12:06:57;3.30;;;1.25;;
48550;SDS011;34397;51.176;6.738;2022-08-03T12:09:29;4.47;;;1.33;;
48550;SDS011;34397;51.176;6.738;2022-08-03T12:12:05;3.58;;;1.20;;
48550;SDS011;34397;51.176;6.738;2022-08-03T12:14:37;2.95;;;1.30;;
48550;SDS011;34397;51.176;6.738;2022-08-03T12:17:09;3.95;;;1.20;;
48550;SDS011;34397;51.176;6.738;2022-08-03T12:19:42;3.20;;;1.10;;
48550;SDS011;34397;51.176;6.738;2022-08-03T12:22:14;2.80;;;1.30;;
48550;SDS011;34397;51.176;6.738;2022-08-03T12:24:46;5.82;;;1.60;;
48550;SDS011;34397;51.176;6.738;2022-08-03T12:27:23;3.35;;;1.45;;
48550;SDS011;34397;51.176;6.738;2022-08-03T12:29:57;2.33;;;1.17;;
48550;SDS011;34397;51.176;6.738;2022-08-03T12:32:30;2.40;;;1.20;;
48550;SDS011;34397;51.176;6.738;2022-08-03T12:35:04;2.97;;;1.30;;
48550;SDS011;34397;51.176;6.738;2022-08-03T12:37:37;3.88;;;1.48;;
48550;SDS011;34397;51.176;6.738;2022-08-03T12:40:09;2.40;;;1.55;;
48550;SDS011;34397;51.176;6.738;2022-08-03T12:42:44;3.72;;;1.25;;
48550;SDS011;34397;51.176;6.738;2022-08-03T12:45:17;4.85;;;1.42;;
48550;SDS011;34397;51.176;6.738;2022-08-03T12:47:51;4.38;;;1.52;;
48550;SDS011;34397;51.176;6.738;2022-08-03T12:50:27;3.85;;;1.52;;
48550;SDS011;34397;51.176;6.738;2022-08-03T12:53:01;3.70;;;1.20;;
48550;SDS011;34397;51.176;6.738;2022-08-03T12:55:35;5.93;;;1.67;;
48550;SDS011;34397;51.176;6.738;2022-08-03T12:58:08;4.80;;;1.30;;
48550;SDS011;34397;51.176;6.738;2022-08-03T13:01:00;3.10;;;1.30;;
48550;SDS011;34397;51.176;6.738;2022-08-03T13:03:37;5.30;;;1.60;;
48550;SDS011;34397;51.176;6.738;2022-08-03T13:06:12;3.45;;;1.33;;
48550;SDS011;34397;51.176;6.738;2022-08-03T13:08:46;4.00;;;1.73;;
48550;SDS011;34397;51.176;6.738;2022-08-03T13:11:19;4.85;;;1.40;;
48550;SDS011;34397;51.176;6.738;2022-08-03T13:13:53;4.30;;;1.40;;
48550;SDS011;34397;51.176;6.738;2022-08-03T13:16:25;5.72;;;1.45;;
48550;SDS011;34397;51.176;6.738;2022-08-03T13:18:57;4.38;;;1.27;;
48550;SDS011;34397;51.176;6.738;2022-08-03T13:21:30;2.70;;;1.20;;
48550;SDS011;34397;51.176;6.738;2022-08-03T13:24:02;4.03;;;1.40;;
48550;SDS011;34397;51.176;6.738;2022-08-03T13:26:35;3.88;;;1.02;;
48550;SDS011;34397;51.176;6.738;2022-08-03T13:31:38;3.85;;;1.73;;
48550;SDS011;34397;51.176;6.738;2022-08-03T13:36:43;4.55;;;1.40;;
48550;SDS011;34397;51.176;6.738;2022-08-03T13:39:15;5.28;;;1.20;;
48550;SDS011;34397;51.176;6.738;2022-08-03T13:44:19;1.92;;;0.95;;
48550;SDS011;34397;51.176;6.738;2022-08-03T13:46:51;5.10;;;1.40;;
48550;SDS011;34397;51.176;6.738;2022-08-03T13:49:22;3.97;;;1.20;;
48550;SDS011;34397;51.176;6.738;2022-08-03T13:54:27;2.85;;;1.10;;
48550;SDS011;34397;51.176;6.738;2022-08-03T13:56:59;2.60;;;1.13;;
48550;SDS011;34397;51.176;6.738;2022-08-03T14:02:03;3.35;;;1.10;;
48550;SDS011;34397;51.176;6.738;2022-08-03T14:07:08;1.45;;;0.90;;
48550;SDS011;34397;51.176;6.738;2022-08-03T14:09:43;5.43;;;1.35;;
48550;SDS011;34397;51.176;6.738;2022-08-03T14:14:47;3.25;;;1.00;;
48550;SDS011;34397;51.176;6.738;2022-08-03T14:19:50;2.78;;;0.80;;
48550;SDS011;34397;51.176;6.738;2022-08-03T14:24:55;4.18;;;1.15;;
48550;SDS011;34397;51.176;6.738;2022-08-03T14:27:27;3.35;;;1.00;;
48550;SDS011;34397;51.176;6.738;2022-08-03T14:32:31;2.15;;;1.00;;
48550;SDS011;34397;51.176;6.738;2022-08-03T14:37:36;5.60;;;1.00;;
48550;SDS011;34397;51.176;6.738;2022-08-03T14:40:08;2.03;;;1.08;;
48550;SDS011;34397;51.176;6.738;2022-08-03T14:42:41;2.03;;;0.85;;
48550;SDS011;34397;51.176;6.738;2022-08-03T14:45:13;2.63;;;0.88;;
48550;SDS011;34397;51.176;6.738;2022-08-03T14:47:45;2.67;;;0.77;;
48550;SDS011;34397;51.176;6.738;2022-08-03T14:50:17;1.33;;;0.80;;
48550;SDS011;34397;51.176;6.738;2022-08-03T14:52:50;4.15;;;0.90;;
48550;SDS011;34397;51.176;6.738;2022-08-03T14:55:22;2.13;;;0.98;;
48550;SDS011;34397;51.176;6.738;2022-08-03T14:57:54;2.00;;;0.70;;
48550;SDS011;34397;51.176;6.738;2022-08-03T15:00:26;1.27;;;0.80;;
48550;SDS011;34397;51.176;6.738;2022-08-03T15:02:58;3.22;;;0.85;;
48550;SDS011;34397;51.176;6.738;2022-08-03T15:08:03;3.80;;;1.10;;
48550;SDS011;34397;51.176;6.738;2022-08-03T15:10:35;2.08;;;0.60;;
48550;SDS011;34397;51.176;6.738;2022-08-03T15:13:07;2.35;;;0.80;;
48550;SDS011;34397;51.176;6.738;2022-08-03T15:15:39;2.47;;;0.85;;
48550;SDS011;34397;51.176;6.738;2022-08-03T15:18:11;2.97;;;1.10;;
48550;SDS011;34397;51.176;6.738;2022-08-03T15:20:43;2.20;;;0.70;;
48550;SDS011;34397;51.176;6.738;2022-08-03T15:23:17;2.58;;;0.65;;
48550;SDS011;34397;51.176;6.738;2022-08-03T15:25:49;2.65;;;1.00;;
48550;SDS011;34397;51.176;6.738;2022-08-03T15:28:21;3.38;;;0.75;;
48550;SDS011;34397;51.176;6.738;2022-08-03T15:30:53;4.22;;;0.85;;
48550;SDS011;34397;51.176;6.738;2022-08-03T15:33:25;2.15;;;0.70;;
48550;SDS011;34397;51.176;6.738;2022-08-03T15:38:31;3.47;;;0.95;;
48550;SDS011;34397;51.176;6.738;2022-08-03T15:41:02;4.35;;;0.90;;
48550;SDS011;34397;51.176;6.738;2022-08-03T15:43:34;4.93;;;0.82;;
48550;SDS011;34397;51.176;6.738;2022-08-03T15:46:06;2.45;;;0.80;;
48550;SDS011;34397;51.176;6.738;2022-08-03T15:48:38;1.40;;;0.65;;
48550;SDS011;34397;51.176;6.738;2022-08-03T15:51:10;3.80;;;0.80;;
48550;SDS011;34397;51.176;6.738;2022-08-03T15:53:43;4.88;;;0.93;;
48550;SDS011;34397;51.176;6.738;2022-08-03T15:56:15;3.92;;;1.02;;
48550;SDS011;34397;51.176;6.738;2022-08-03T15:58:47;3.08;;;0.90;;
48550;SDS011;34397;51.176;6.738;2022-08-03T16:01:19;2.80;;;0.90;;
48550;SDS011;34397;51.176;6.738;2022-08-03T16:03:51;4.40;;;0.90;;
48550;SDS011;34397;51.176;6.738;2022-08-03T16:06:22;2.63;;;1.23;;
48550;SDS011;34397;51.176;6.738;2022-08-03T16:08:56;2.28;;;0.88;;
48550;SDS011;34397;51.176;6.738;2022-08-03T16:11:27;4.10;;;1.08;;
48550;SDS011;34397;51.176;6.738;2022-08-03T16:13:59;0.88;;;0.55;;
48550;SDS011;34397;51.176;6.738;2022-08-03T16:16:31;1.80;;;0.73;;
48550;SDS011;34397;51.176;6.738;2022-08-03T16:19:04;2.55;;;0.77;;
48550;SDS011;34397;51.176;6.738;2022-08-03T16:21:36;3.08;;;0.80;;
48550;SDS011;34397;51.176;6.738;2022-08-03T16:24:09;3.55;;;0.85;;
48550;SDS011;34397;51.176;6.738;2022-08-03T16:26:41;3.55;;;1.00;;
48550;SDS011;34397;51.176;6.738;2022-08-03T16:29:13;2.97;;;0.80;;